Time;durP1;ratioP1;P1;durP2;ratioP2;P2;SDS_P1;SDS_P2;PMS_P1;PMS_P2;Temp;Humidity;BMP_temperature;BMP_pressure;BME280_temperature;BME280_humidity;BME280_pressure;Samples;Min_cycle;Max_cycle;Signal;HPM_P1;HPM_P2
2021/07/22 00:02:06;;;;;;;15.98;6.75;;;19.70;99.90;;;20.15;73.05;101758.09;5094657;28;20207;-75
2021/07/22 00:04:33;;;;;;;17.05;6.82;;;19.60;99.90;;;20.12;73.18;101758.25;5094442;28;20195;-76
2021/07/22 00:07:01;;;;;;;14.30;6.20;;;19.60;99.90;;;20.12;73.42;101757.38;5096249;28;20211;-76
2021/07/22 00:09:28;;;;;;;14.20;6.10;;;19.60;99.90;;;20.12;73.38;101757.38;5094652;28;20578;-76
2021/07/22 00:11:54;;;;;;;16.17;6.75;;;19.60;99.90;;;20.14;73.37;101750.19;5094186;28;20651;-77
2021/07/22 00:14:21;;;;;;;13.40;5.75;;;19.60;99.90;;;20.16;73.23;101753.63;5094324;28;20286;-77
2021/07/22 00:16:48;;;;;;;13.50;6.20;;;19.60;99.90;;;20.17;73.44;101761.53;5095321;28;20648;-77
2021/07/22 00:19:15;;;;;;;14.05;6.05;;;19.60;99.90;;;20.17;73.59;101753.53;5094027;28;20219;-77
2021/07/22 00:21:42;;;;;;;14.65;6.55;;;19.70;99.90;;;20.16;73.16;101749.16;5093816;28;20210;-79
2021/07/22 00:24:10;;;;;;;14.07;6.55;;;19.60;99.90;;;20.17;73.22;101755.34;5094996;28;20183;-77
2021/07/22 00:26:38;;;;;;;15.93;6.88;;;19.60;99.90;;;20.17;73.21;101750.88;5094191;28;20248;-77
2021/07/22 00:29:05;;;;;;;16.92;6.10;;;19.60;99.90;;;20.17;73.50;101750.88;5093605;28;20215;-77
2021/07/22 00:31:32;;;;;;;15.25;6.65;;;19.60;99.90;;;20.15;73.65;101751.88;5094768;28;20179;-77
2021/07/22 00:33:59;;;;;;;16.08;6.53;;;19.60;99.90;;;20.13;73.64;101743.16;5093885;28;20192;-76
2021/07/22 00:36:26;;;;;;;16.15;6.53;;;19.60;99.90;;;20.14;73.90;101747.53;5095090;28;20184;-76
2021/07/22 00:38:53;;;;;;;17.23;6.75;;;19.60;99.90;;;20.13;73.97;101745.81;5094965;28;20203;-76
2021/07/22 00:41:21;;;;;;;17.40;6.18;;;19.60;99.90;;;20.12;73.96;101744.97;5094859;28;20207;-77
2021/07/22 00:43:48;;;;;;;14.73;6.60;;;19.60;99.90;;;20.11;73.70;101747.72;5094744;28;20255;-78
2021/07/22 00:46:15;;;;;;;16.92;7.07;;;19.60;99.90;;;20.13;74.01;101748.47;5099970;28;20227;-76
2021/07/22 00:48:43;;;;;;;14.88;6.22;;;19.60;99.90;;;20.11;73.85;101750.38;5094849;28;20206;-76
2021/07/22 00:51:10;;;;;;;14.55;7.00;;;19.60;99.90;;;20.09;73.94;101750.47;5093683;28;20218;-76
2021/07/22 00:53:38;;;;;;;15.75;6.53;;;19.60;99.90;;;20.07;73.92;101743.50;5093602;28;20191;-76
2021/07/22 00:56:06;;;;;;;15.93;7.30;;;19.60;99.90;;;20.06;74.08;101747.13;5093232;28;20187;-76
2021/07/22 00:58:35;;;;;;;15.75;6.93;;;19.60;99.90;;;20.07;74.10;101746.19;5110297;28;20302;-76
2021/07/22 01:01:02;;;;;;;15.50;6.35;;;19.50;99.90;;;20.06;73.86;101744.47;5093534;28;20184;-77
2021/07/22 01:03:29;;;;;;;15.95;7.00;;;19.60;99.90;;;20.04;74.15;101741.91;5092949;28;20648;-76
2021/07/22 01:05:57;;;;;;;16.77;7.45;;;19.50;99.90;;;20.04;74.03;101744.56;5092291;28;20199;-76
2021/07/22 01:08:24;;;;;;;17.75;7.55;;;19.50;99.90;;;20.05;74.15;101746.25;5093155;28;20234;-75
2021/07/22 01:11:09;;;;;;;18.80;8.27;;;19.50;99.90;;;20.06;74.26;101742.66;5094260;28;20560;-76
2021/07/22 01:13:37;;;;;;;18.20;7.88;;;19.50;99.90;;;20.05;73.93;101738.28;5094199;28;20215;-76
2021/07/22 01:16:05;;;;;;;16.75;7.57;;;19.50;99.90;;;20.04;74.29;101733.06;5094403;28;20191;-75
2021/07/22 01:18:32;;;;;;;18.75;7.95;;;19.50;99.90;;;20.02;74.10;101743.81;5094912;28;20245;-77
2021/07/22 01:21:01;;;;;;;21.10;8.77;;;19.50;99.90;;;20.01;74.30;101734.09;5099505;28;20195;-76
2021/07/22 01:23:28;;;;;;;18.75;8.50;;;19.50;99.90;;;20.01;74.39;101734.09;5101887;28;20198;-76
2021/07/22 01:26:21;;;;;;;16.05;7.60;;;19.50;99.90;;;20.02;74.20;101740.28;5087607;28;20216;-76
2021/07/22 01:28:48;;;;;;;21.63;9.13;;;19.50;99.90;;;20.01;74.29;101743.91;5109591;28;20245;-77
2021/07/22 01:31:15;;;;;;;16.52;8.23;;;19.50;99.90;;;19.99;73.97;101736.84;5107346;28;20195;-77
2021/07/22 01:33:44;;;;;;;18.77;8.50;;;19.50;99.90;;;20.00;74.19;101735.06;5092345;28;20195;-77
2021/07/22 01:36:13;;;;;;;18.98;8.05;;;19.50;99.90;;;19.99;74.17;101736.84;5091855;28;20199;-76
2021/07/22 01:38:40;;;;;;;19.08;8.50;;;19.50;99.90;;;19.98;74.15;101729.84;5091688;28;20250;-75
2021/07/22 01:41:07;;;;;;;18.63;8.00;;;19.50;99.90;;;19.98;74.00;101735.16;5091691;28;20192;-76
2021/07/22 01:43:34;;;;;;;15.40;7.40;;;19.50;99.90;;;19.96;74.27;101737.03;5091667;28;20283;-77
2021/07/22 01:46:01;;;;;;;14.77;6.78;;;19.40;99.90;;;19.95;74.29;101735.34;5091707;28;20187;-76
2021/07/22 01:48:27;;;;;;;13.93;6.60;;;19.40;99.90;;;19.90;74.48;101734.75;5091508;28;20207;-78
2021/07/22 01:50:54;;;;;;;17.52;7.00;;;19.40;99.90;;;19.88;74.42;101735.78;5091425;28;20191;-77
2021/07/22 01:53:22;;;;;;;15.75;6.55;;;19.40;99.90;;;19.84;74.27;101732.44;5091426;28;20673;-76
2021/07/22 01:55:49;;;;;;;14.98;6.43;;;19.30;99.90;;;19.80;74.77;101730.94;5091497;28;20191;-77
2021/07/22 01:58:17;;;;;;;15.43;6.80;;;19.30;99.90;;;19.79;74.90;101728.38;5091341;28;20207;-76
2021/07/22 02:00:44;;;;;;;15.73;6.85;;;19.30;99.90;;;19.76;74.83;101729.41;5092491;28;20180;-77
2021/07/22 02:03:11;;;;;;;15.27;6.03;;;19.30;99.90;;;19.74;74.75;101728.63;5091562;28;20203;-77
2021/07/22 02:05:55;;;;;;;14.90;6.15;;;19.30;99.90;;;19.70;74.90;101723.59;5091082;28;20187;-77
2021/07/22 02:08:24;;;;;;;15.00;6.22;;;19.20;99.90;;;19.70;74.98;101729.78;5091335;28;20230;-77
2021/07/22 02:10:51;;;;;;;16.98;6.93;;;19.20;99.90;;;19.69;75.03;101732.53;5091742;28;20278;-76
2021/07/22 02:13:18;;;;;;;14.77;6.38;;;19.20;99.90;;;19.69;75.00;101728.03;5093195;28;20179;-76
2021/07/22 02:15:49;;;;;;;14.38;6.50;;;19.20;99.90;;;19.68;75.24;101733.44;5092063;28;20195;-76
2021/07/22 02:18:28;;;;;;;15.60;6.40;;;19.10;99.90;;;19.65;75.19;101726.53;5091078;28;20219;-76
2021/07/22 02:20:55;;;;;;;14.60;6.40;;;19.10;99.90;;;19.62;75.11;101729.38;5092649;28;20211;-77
2021/07/22 02:23:24;;;;;;;15.98;6.82;;;19.10;99.90;;;19.60;75.46;101733.91;5091423;28;20207;-77
2021/07/22 02:26:11;;;;;;;15.93;6.60;;;19.10;99.90;;;19.60;75.64;101733.06;5084422;28;20204;-76
2021/07/22 02:28:38;;;;;;;14.88;6.72;;;19.10;99.90;;;19.58;75.53;101735.81;5091127;28;20215;-78
2021/07/22 02:31:05;;;;;;;15.75;6.03;;;19.10;99.90;;;19.56;75.94;101743.00;5092126;28;20193;-76
2021/07/22 02:33:33;;;;;;;15.48;6.75;;;19.10;99.90;;;19.55;75.79;101746.59;5091085;28;20191;-76
2021/07/22 02:36:00;;;;;;;18.65;7.78;;;19.10;99.90;;;19.53;76.10;101743.19;5091408;28;20187;-76
2021/07/22 02:38:49;;;;;;;18.58;7.30;;;19.10;99.90;;;19.53;76.00;101735.22;5092166;28;20215;-76
2021/07/22 02:41:15;;;;;;;16.75;7.15;;;19.00;99.90;;;19.52;75.90;101738.81;5092635;28;20215;-76
2021/07/22 02:43:42;;;;;;;16.48;6.95;;;19.00;99.90;;;19.51;75.96;101739.75;5092286;28;20648;-76
2021/07/22 02:46:13;;;;;;;17.08;7.20;;;19.00;99.90;;;19.52;75.96;101738.81;5094820;28;20729;-76
2021/07/22 02:48:50;;;;;;;14.20;6.28;;;19.00;99.90;;;19.52;76.23;101741.47;5095129;28;20214;-76
2021/07/22 02:51:17;;;;;;;16.17;6.82;;;19.00;99.90;;;19.51;76.08;101737.09;5095485;28;20612;-76
2021/07/22 02:53:44;;;;;;;16.17;6.88;;;18.90;99.90;;;19.50;76.11;101743.38;5095185;28;20191;-76
2021/07/22 02:56:22;;;;;;;16.55;6.90;;;19.00;99.90;;;19.48;76.10;101744.38;5096402;28;20171;-76
2021/07/22 02:58:50;;;;;;;13.27;6.60;;;19.00;99.90;;;19.46;75.76;101740.94;5095350;28;20667;-77
2021/07/22 03:01:18;;;;;;;14.52;6.57;;;18.90;99.90;;;19.45;76.42;101736.59;5111977;28;20205;-76
2021/07/22 03:03:45;;;;;;;16.25;6.63;;;18.90;99.90;;;19.44;76.21;101737.56;5095894;28;20206;-76
2021/07/22 03:06:17;;;;;;;18.15;7.10;;;18.90;99.90;;;19.41;76.17;101738.56;5094086;28;20218;-76
2021/07/22 03:08:51;;;;;;;16.83;6.95;;;18.90;99.90;;;19.41;76.41;101743.00;5094795;28;20219;-76
2021/07/22 03:11:22;;;;;;;16.92;5.65;;;18.90;99.90;;;19.41;76.73;101738.56;5094261;28;20199;-77
2021/07/22 03:13:51;;;;;;;14.80;6.60;;;18.90;99.90;;;19.38;76.67;101733.44;5094537;28;20183;-77
2021/07/22 03:16:19;;;;;;;15.38;6.65;;;18.90;99.90;;;19.38;76.47;101738.75;5095546;28;20180;-77
2021/07/22 03:19:09;;;;;;;16.73;6.78;;;18.80;99.90;;;19.39;76.62;101740.44;5089299;28;20246;-77
2021/07/22 03:21:48;;;;;;;14.95;6.95;;;18.80;99.90;;;19.38;76.80;101730.78;5094130;28;20191;-76
2021/07/22 03:24:41;;;;;;;15.30;6.72;;;18.90;99.90;;;19.38;76.84;101741.41;5095265;28;20195;-77
2021/07/22 03:27:18;;;;;;;15.45;6.75;;;18.80;99.90;;;19.39;76.62;101739.63;5093947;28;20209;-77
2021/07/22 03:29:44;;;;;;;15.95;6.97;;;18.80;99.90;;;19.38;77.05;101744.06;5093906;28;20211;-77
2021/07/22 03:32:12;;;;;;;15.43;6.45;;;18.80;99.90;;;19.39;76.68;101736.97;5095399;28;20218;-78
2021/07/22 03:34:40;;;;;;;15.75;7.00;;;18.80;99.90;;;19.39;76.69;101740.44;5094150;28;20200;-75
2021/07/22 03:37:15;;;;;;;15.90;6.75;;;18.90;99.90;;;19.41;76.62;101743.88;5093831;28;20195;-77
2021/07/22 03:39:43;;;;;;;16.50;7.22;;;18.90;99.90;;;19.43;76.44;101744.66;5093742;28;20211;-77
2021/07/22 03:42:11;;;;;;;15.35;6.70;;;18.90;99.90;;;19.44;76.45;101735.72;5094243;28;20200;-78
2021/07/22 03:44:54;;;;;;;18.55;7.80;;;18.90;99.90;;;19.42;76.38;101742.97;5093704;28;20196;-78
2021/07/22 03:47:23;;;;;;;19.95;7.72;;;18.90;99.90;;;19.42;76.43;101737.66;5093536;28;20207;-78
2021/07/22 03:49:53;;;;;;;15.73;6.97;;;18.90;99.90;;;19.44;76.58;101737.56;5096195;28;20717;-77
2021/07/22 03:52:36;;;;;;;18.27;7.15;;;18.90;99.90;;;19.44;76.38;101732.25;5093918;28;20193;-76
2021/07/22 03:55:03;;;;;;;17.33;7.47;;;18.90;99.90;;;19.44;76.75;101735.72;5093052;28;20245;-76
2021/07/22 03:57:30;;;;;;;18.02;7.72;;;18.90;99.90;;;19.45;76.67;101737.47;5093523;28;20191;-76
2021/07/22 03:59:59;;;;;;;16.10;7.65;;;19.00;99.90;;;19.46;76.56;101741.81;5093384;28;20298;-76
2021/07/22 04:02:29;;;;;;;16.92;7.22;;;19.00;99.90;;;19.46;76.94;101738.28;5093621;28;20195;-77
2021/07/22 04:04:57;;;;;;;16.92;7.60;;;19.00;99.90;;;19.45;76.76;101745.44;5093272;28;20610;-77
2021/07/22 04:07:27;;;;;;;16.52;7.70;;;19.00;99.90;;;19.44;76.79;101738.38;5093555;28;20221;-76
2021/07/22 04:10:11;;;;;;;18.30;6.90;;;19.00;99.90;;;19.43;77.39;101738.47;5093753;28;20195;-78
2021/07/22 04:12:43;;;;;;;16.35;7.93;;;19.00;99.90;;;19.40;77.48;101742.19;5096102;28;20550;-76
2021/07/22 04:15:24;;;;;;;18.42;7.53;;;19.00;99.90;;;19.38;77.57;101744.06;5095655;28;20198;-76
2021/07/22 04:18:13;;;;;;;18.90;7.35;;;19.00;99.90;;;19.38;77.91;101740.53;5093512;28;20691;-76
2021/07/22 04:21:03;;;;;;;16.60;8.13;;;19.00;99.90;;;19.41;77.58;101743.00;5094682;28;20187;-76
2021/07/22 04:23:44;;;;;;;18.88;7.93;;;19.00;99.90;;;19.42;77.88;101745.63;5094881;28;20195;-76
2021/07/22 04:26:20;;;;;;;18.30;8.02;;;19.00;99.90;;;19.44;77.68;101742.88;5095817;28;20248;-76
2021/07/22 04:29:01;;;;;;;19.42;7.43;;;19.00;99.90;;;19.42;77.71;101745.63;5094144;28;20755;-76
2021/07/22 04:31:30;;;;;;;16.05;7.22;;;19.00;99.90;;;19.38;77.86;101744.06;5093955;28;20635;-76
2021/07/22 04:34:32;;;;;;;20.05;7.60;;;19.00;99.90;;;19.32;77.88;101755.06;5052678;28;20192;-77
2021/07/22 04:37:12;;;;;;;18.05;7.88;;;19.00;99.90;;;19.28;77.94;101750.81;5087020;28;20191;-77
2021/07/22 04:39:57;;;;;;;16.70;7.65;;;18.90;99.90;;;19.28;78.13;101750.81;5094337;28;20222;-76
2021/07/22 04:42:43;;;;;;;16.10;7.20;;;18.90;99.90;;;19.31;78.18;101744.47;5098147;28;20210;-77
2021/07/22 04:45:28;;;;;;;15.65;7.28;;;19.00;99.90;;;19.34;77.81;101742.50;5106019;28;20219;-77
2021/07/22 04:48:06;;;;;;;17.55;7.72;;;18.90;99.90;;;19.35;77.91;101749.56;5112868;28;20241;-77
2021/07/22 04:51:09;;;;;;;17.38;7.75;;;19.00;99.90;;;19.35;77.72;101752.22;5125276;28;20198;-77
2021/07/22 04:53:44;;;;;;;15.98;7.57;;;19.00;99.90;;;19.36;77.70;101753.03;5095305;28;20200;-76
2021/07/22 04:56:12;;;;;;;15.25;7.60;;;19.00;99.90;;;19.37;77.83;101747.69;5095715;28;20282;-72
2021/07/22 04:58:38;;;;;;;15.98;7.25;;;19.00;99.90;;;19.39;78.17;101747.59;5093476;28;20215;-78
2021/07/22 05:01:14;;;;;;;17.10;7.65;;;19.00;99.90;;;19.38;78.10;101754.69;5093135;28;20739;-76
2021/07/22 05:03:43;;;;;;;16.38;7.43;;;19.00;99.90;;;19.38;78.01;101752.03;5095128;28;20194;-75
2021/07/22 05:06:10;;;;;;;17.85;7.65;;;19.00;99.90;;;19.39;77.97;101753.72;5093196;28;20253;-76
2021/07/22 05:08:56;;;;;;;17.40;7.47;;;19.00;99.90;;;19.42;77.91;101755.38;5094307;28;20700;-77
2021/07/22 05:11:43;;;;;;;16.55;7.65;;;19.00;99.90;;;19.43;77.98;101765.91;5092781;28;20241;-76
2021/07/22 05:14:23;;;;;;;17.35;7.78;;;19.10;99.90;;;19.45;78.09;101765.81;5092856;28;20236;-76
2021/07/22 05:16:56;;;;;;;20.42;8.60;;;19.10;99.90;;;19.46;77.93;101757.75;5092085;28;20197;-76
2021/07/22 05:19:51;;;;;;;16.85;8.52;;;19.10;99.90;;;19.49;77.61;101759.41;5092173;28;20217;-76
2021/07/22 05:22:36;;;;;;;17.45;7.90;;;19.20;99.90;;;19.50;77.71;101756.66;5094326;28;20201;-76
2021/07/22 05:25:25;;;;;;;16.50;7.55;;;19.10;99.90;;;19.55;77.65;101754.56;5092499;28;20196;-76
2021/07/22 05:28:24;;;;;;;17.77;7.85;;;19.20;99.90;;;19.59;77.84;101749.94;5070581;28;20588;-76
2021/07/22 05:31:26;;;;;;;19.90;7.63;;;19.30;99.90;;;19.63;77.45;101754.97;5083122;28;20679;-76
2021/07/22 05:34:19;;;;;;;17.08;8.10;;;19.30;99.90;;;19.67;77.13;101756.53;5092173;28;20258;-76
2021/07/22 05:37:10;;;;;;;15.18;6.97;;;19.30;99.90;;;19.72;77.20;101750.94;5094039;28;20747;-76
2021/07/22 05:39:43;;;;;;;17.10;7.35;;;19.40;99.90;;;19.79;77.48;101760.25;5093939;28;20195;-76
2021/07/22 05:42:10;;;;;;;15.95;7.18;;;19.50;99.90;;;19.84;77.05;101750.22;5094597;28;20210;-77
2021/07/22 05:44:36;;;;;;;14.50;7.05;;;19.50;99.90;;;19.87;76.51;101756.22;5109709;28;20652;-76
2021/07/22 05:47:05;;;;;;;15.65;6.60;;;19.50;99.90;;;19.88;75.44;101755.25;5092882;28;20284;-76
2021/07/22 05:49:32;;;;;;;17.30;7.45;;;19.60;99.90;;;19.93;75.17;101757.63;5092254;28;20570;-77
2021/07/22 05:52:00;;;;;;;17.65;7.50;;;19.70;99.90;;;19.98;74.93;101752.91;5091473;28;20191;-77
2021/07/22 05:54:28;;;;;;;22.45;8.23;;;19.70;99.90;;;20.02;74.41;101749.13;5091550;28;20191;-78
2021/07/22 05:56:55;;;;;;;18.77;7.32;;;19.70;99.90;;;20.05;74.39;101746.25;5090991;28;20191;-78
2021/07/22 05:59:22;;;;;;;18.52;7.82;;;19.80;99.90;;;20.09;73.95;101745.16;5091196;28;20277;-76
2021/07/22 06:01:48;;;;;;;15.10;6.90;;;19.80;99.90;;;20.12;73.94;101749.41;5090833;28;20652;-78
2021/07/22 06:04:15;;;;;;;16.27;7.22;;;19.90;99.90;;;20.16;73.41;101743.00;5090895;28;20194;-78
2021/07/22 06:06:43;;;;;;;20.13;7.28;;;19.90;99.90;;;20.20;73.22;101739.19;5091692;28;20187;-77
2021/07/22 06:09:10;;;;;;;21.55;8.18;;;20.00;99.90;;;20.20;72.90;101750.69;5092295;28;20253;-77
2021/07/22 06:11:38;;;;;;;19.77;7.88;;;20.00;99.90;;;20.24;72.98;101754.88;5091089;28;20214;-77
2021/07/22 06:14:05;;;;;;;17.35;7.80;;;20.00;99.90;;;20.25;72.57;101748.59;5091074;28;20534;-77
2021/07/22 06:16:31;;;;;;;19.63;8.02;;;20.10;99.90;;;20.27;72.49;101745.84;5091110;28;20671;-76
2021/07/22 06:18:58;;;;;;;21.45;8.30;;;20.10;99.90;;;20.31;72.27;101747.38;5094334;28;20207;-77
2021/07/22 06:21:25;;;;;;;22.25;8.40;;;20.10;99.90;;;20.37;71.67;101747.00;5096791;28;20586;-77
2021/07/22 06:23:52;;;;;;;15.75;7.70;;;20.20;99.90;;;20.40;71.36;101746.81;5095355;28;20196;-77
2021/07/22 06:26:18;;;;;;;18.95;7.75;;;20.20;99.90;;;20.44;71.43;101743.03;5094986;28;20698;-76
2021/07/22 06:28:46;;;;;;;21.30;7.60;;;20.20;99.90;;;20.50;71.41;101742.63;5095326;28;20240;-77
2021/07/22 06:31:13;;;;;;;19.98;7.60;;;20.30;99.90;;;20.57;70.83;101749.28;5096507;28;20191;-78
2021/07/22 06:33:40;;;;;;;20.42;7.25;;;20.40;99.90;;;20.60;71.14;101749.94;5096002;28;20187;-76
2021/07/22 06:36:06;;;;;;;17.73;7.00;;;20.40;99.90;;;20.63;70.79;101748.91;5096452;28;20202;-77
2021/07/22 06:38:33;;;;;;;16.13;6.43;;;20.50;99.90;;;20.67;70.44;101753.06;5095402;28;20714;-78
2021/07/22 06:41:00;;;;;;;17.80;6.47;;;20.50;99.90;;;20.71;69.87;101754.59;5095649;28;20552;-76
2021/07/22 06:43:29;;;;;;;15.57;6.07;;;20.50;99.90;;;20.74;69.39;101751.75;5096959;28;20193;-76
2021/07/22 06:45:57;;;;;;;17.23;7.60;;;20.60;99.90;;;20.79;69.56;101747.00;5095578;28;20236;-77
2021/07/22 06:48:24;;;;;;;16.60;6.35;;;20.60;99.90;;;20.83;69.52;101754.69;5096321;28;20695;-78
2021/07/22 06:50:51;;;;;;;14.20;6.78;;;20.70;99.90;;;20.89;69.15;101756.97;5094717;28;20194;-77
2021/07/22 06:53:18;;;;;;;15.95;6.55;;;20.80;99.90;;;20.94;69.09;101752.22;5094999;28;20435;-75
2021/07/22 06:55:45;;;;;;;15.52;6.32;;;20.80;99.90;;;20.97;69.39;101753.81;5095980;28;20681;-78
2021/07/22 06:58:12;;;;;;;16.95;6.60;;;20.90;99.90;;;21.02;69.10;101757.06;5096051;28;20204;-75
2021/07/22 07:00:38;;;;;;;14.45;6.03;;;20.90;99.90;;;21.04;68.73;101757.81;5094666;28;20195;-76
2021/07/22 07:03:09;;;;;;;17.92;6.43;;;20.90;99.90;;;21.08;69.01;101759.34;5096721;28;20210;-77
2021/07/22 07:05:36;;;;;;;13.65;6.18;;;21.00;99.90;;;21.07;68.44;101750.50;5094369;28;20195;-76
2021/07/22 07:08:04;;;;;;;12.90;6.10;;;21.00;99.90;;;21.11;69.02;101762.66;5094030;28;20230;-78
2021/07/22 07:10:31;;;;;;;14.32;5.50;;;21.00;99.90;;;21.18;68.58;101757.81;5111640;28;20191;-77
2021/07/22 07:12:58;;;;;;;13.82;5.68;;;21.10;99.90;;;21.17;68.52;101750.75;5094071;28;20191;-77
2021/07/22 07:15:25;;;;;;;14.73;6.55;;;21.10;99.90;;;21.17;68.98;101752.56;5095289;28;20678;-76
2021/07/22 07:17:52;;;;;;;22.17;10.10;;;21.10;99.90;;;21.17;68.91;101749.91;5093771;28;20664;-77
2021/07/22 07:20:20;;;;;;;15.32;7.13;;;21.10;99.90;;;21.22;68.94;101756.63;5093985;28;20199;-76
2021/07/22 07:22:48;;;;;;;16.45;6.55;;;21.10;99.90;;;21.31;68.49;101739.19;5094236;28;20655;-77
2021/07/22 07:25:15;;;;;;;21.77;11.10;;;21.30;99.90;;;21.42;68.42;101745.53;5093902;28;20192;-76
2021/07/22 07:27:42;;;;;;;19.05;6.93;;;21.40;99.90;;;21.52;68.42;101754.63;5110479;28;20198;-77
2021/07/22 07:30:11;;;;;;;14.82;6.88;;;21.50;99.90;;;21.60;67.96;101749.63;5093079;28;20566;-78
2021/07/22 07:32:38;;;;;;;15.27;6.47;;;21.50;99.90;;;21.63;68.20;101749.44;5110666;28;20286;-77
2021/07/22 07:35:06;;;;;;;13.48;6.20;;;21.60;99.90;;;21.63;68.37;101751.25;5093609;28;20241;-77
2021/07/22 07:37:34;;;;;;;16.63;6.32;;;21.60;99.90;;;21.67;68.29;101753.59;5093473;28;20191;-77
2021/07/22 07:40:00;;;;;;;14.15;6.03;;;21.70;99.90;;;21.67;68.44;101750.94;5093450;28;20212;-76
2021/07/22 07:42:27;;;;;;;14.30;6.18;;;21.70;99.90;;;21.69;68.17;101749.03;5093432;28;20191;-77
2021/07/22 07:44:55;;;;;;;16.63;6.28;;;21.70;99.90;;;21.69;68.48;101743.69;5093664;28;20675;-75
2021/07/22 07:47:22;;;;;;;13.15;6.13;;;21.70;99.90;;;21.72;68.16;101748.81;5094631;28;20184;-77
2021/07/22 07:49:49;;;;;;;13.73;6.43;;;21.70;99.90;;;21.73;68.04;101753.19;5093503;28;20215;-77
2021/07/22 07:52:16;;;;;;;16.00;6.47;;;21.70;99.90;;;21.76;68.39;101742.34;5093695;28;20184;-77
2021/07/22 07:54:44;;;;;;;12.85;5.78;;;21.70;99.90;;;21.76;68.47;101752.13;5094606;28;20194;-77
2021/07/22 07:57:11;;;;;;;14.98;7.00;;;21.70;99.90;;;21.77;67.95;101746.72;5095163;28;20656;-76
2021/07/22 07:59:37;;;;;;;17.48;6.68;;;21.70;99.90;;;21.84;67.98;101741.81;5093678;28;20215;-76
2021/07/22 08:02:04;;;;;;;14.13;6.38;;;21.80;99.90;;;21.90;67.85;101742.25;5094591;28;20488;-77
2021/07/22 08:04:31;;;;;;;14.32;6.00;;;21.90;99.90;;;21.92;67.71;101737.69;5096072;28;20195;-76
2021/07/22 08:06:58;;;;;;;14.25;5.82;;;21.90;99.90;;;21.95;68.00;101742.81;5110043;28;20206;-78
2021/07/22 08:09:25;;;;;;;16.40;5.95;;;22.00;99.90;;;21.95;67.81;101737.47;5110516;28;20222;-77
2021/07/22 08:11:53;;;;;;;16.30;6.50;;;22.00;99.90;;;22.03;67.83;101737.81;5113035;28;20187;-77
2021/07/22 08:14:20;;;;;;;15.32;6.10;;;22.10;99.90;;;22.14;67.45;101739.72;5094837;28;20188;-77
2021/07/22 08:16:46;;;;;;;15.07;6.15;;;22.20;99.90;;;22.22;67.70;101737.41;5095326;28;20271;-77
2021/07/22 08:19:13;;;;;;;22.50;6.78;;;22.30;99.90;;;22.24;67.05;101736.31;5110906;28;20212;-76
2021/07/22 08:21:40;;;;;;;14.82;6.03;;;22.30;99.90;;;22.22;67.43;101727.56;5094162;28;20192;-76
2021/07/22 08:24:07;;;;;;;16.52;6.72;;;22.30;99.90;;;22.18;67.48;101731.44;5093983;28;20644;-76
2021/07/22 08:26:34;;;;;;;16.50;6.43;;;22.20;99.90;;;22.14;67.09;101731.72;5095428;28;20195;-76
2021/07/22 08:29:02;;;;;;;16.08;6.53;;;22.20;99.90;;;22.17;66.85;101727.03;5094907;28;20219;-77
2021/07/22 08:31:29;;;;;;;13.88;5.47;;;22.20;99.90;;;22.21;67.04;101725.00;5094214;28;20655;-78
2021/07/22 08:33:56;;;;;;;15.43;6.35;;;22.20;99.90;;;22.19;66.97;101726.94;5093577;28;20191;-76
2021/07/22 08:36:23;;;;;;;12.07;5.13;;;22.20;99.90;;;22.23;66.63;101723.97;5093557;28;20191;-77
2021/07/22 08:38:50;;;;;;;14.88;6.03;;;22.30;99.90;;;22.24;66.71;101720.31;5093598;28;20222;-78
2021/07/22 08:41:17;;;;;;;14.57;5.75;;;22.30;99.90;;;22.27;66.54;101719.28;5092478;28;20627;-77
2021/07/22 08:43:49;;;;;;;14.23;5.55;;;22.30;99.90;;;22.33;65.69;101719.69;5092218;28;20192;-77
2021/07/22 08:46:17;;;;;;;14.55;5.88;;;22.40;99.90;;;22.37;66.01;101715.81;5093043;28;20564;-79
2021/07/22 08:48:45;;;;;;;13.93;5.93;;;22.40;99.90;;;22.51;65.54;101716.66;5092358;28;20223;-77
2021/07/22 08:51:12;;;;;;;14.20;5.53;;;22.50;99.90;;;22.61;65.56;101715.06;5093913;28;20551;-77
2021/07/22 08:53:41;;;;;;;10.23;4.90;;;22.60;99.90;;;22.73;64.99;101719.53;5093649;28;20191;-78
2021/07/22 08:56:08;;;;;;;11.55;4.82;;;22.80;99.90;;;22.87;63.82;101714.06;5092383;28;20200;-78
2021/07/22 08:58:39;;;;;;;12.20;5.28;;;23.00;99.90;;;22.91;63.75;101700.38;5092258;28;20211;-78
2021/07/22 09:01:11;;;;;;;12.25;5.47;;;23.00;99.90;;;22.85;63.45;101708.84;5092797;28;20279;-77
2021/07/22 09:03:39;;;;;;;13.57;5.43;;;23.00;99.90;;;22.82;63.74;101716.22;5092503;28;20213;-78
2021/07/22 09:06:16;;;;;;;11.50;5.20;;;23.00;99.90;;;22.81;63.55;101710.03;5092641;28;20282;-76
2021/07/22 09:08:43;;;;;;;13.68;5.60;;;22.90;99.90;;;22.82;62.75;101703.72;5092855;28;20219;-76
2021/07/22 09:11:12;;;;;;;12.95;5.47;;;22.90;99.90;;;22.95;62.71;101706.34;5093968;28;20180;-77
2021/07/22 09:13:39;;;;;;;11.45;4.95;;;23.10;99.90;;;23.01;62.52;101705.88;5094140;28;20187;-76
2021/07/22 09:16:09;;;;;;;14.73;5.28;;;23.20;99.90;;;23.03;62.28;101714.66;5094289;28;20183;-78
2021/07/22 09:18:36;;;;;;;16.02;5.40;;;23.20;99.90;;;23.01;61.91;101701.41;5097719;28;20264;-78
2021/07/22 09:21:22;;;;;;;10.23;4.75;;;23.20;99.90;;;23.02;61.98;101703.13;5093654;28;20203;-76
2021/07/22 09:24:08;;;;;;;13.35;5.57;;;23.30;99.90;;;23.05;61.81;101699.38;5092961;28;20195;-76
2021/07/22 09:26:37;;;;;;;14.88;5.75;;;23.30;99.90;;;23.03;62.52;101706.63;5091886;28;20199;-77
2021/07/22 09:29:07;;;;;;;11.82;5.22;;;23.30;99.90;;;22.97;62.83;101704.41;5092013;28;20218;-77
2021/07/22 09:31:34;;;;;;;11.80;5.10;;;23.20;99.90;;;22.95;62.99;101701.88;5093377;28;20194;-78
2021/07/22 09:34:02;;;;;;;15.15;5.35;;;23.20;99.90;;;23.13;62.94;101694.31;5092150;28;20191;-78
2021/07/22 09:36:34;;;;;;;13.38;5.78;;;23.50;99.90;;;23.42;62.38;101696.56;5092008;28;20200;-78
2021/07/22 09:39:19;;;;;;;14.25;5.00;;;23.80;99.90;;;23.65;61.16;101697.47;5093128;28;20695;-78
2021/07/22 09:41:55;;;;;;;13.13;5.20;;;24.00;99.90;;;23.61;60.85;101696.03;5092100;28;20198;-76
2021/07/22 09:44:34;;;;;;;15.63;5.35;;;24.00;99.90;;;23.49;60.73;101691.59;5092137;28;20187;-76
2021/07/22 09:47:03;;;;;;;14.02;5.35;;;23.90;99.90;;;23.37;60.40;101696.06;5091257;28;20290;-77
2021/07/22 09:49:37;;;;;;;12.02;4.90;;;23.70;99.90;;;23.30;60.55;101691.28;5092661;28;20302;-78
2021/07/22 09:52:11;;;;;;;13.40;6.07;;;23.60;99.90;;;23.22;61.04;101689.16;5094282;28;20270;-76
2021/07/22 09:54:39;;;;;;;12.35;5.28;;;23.50;99.90;;;23.16;61.39;101694.09;5092868;28;20218;-76
2021/07/22 09:57:16;;;;;;;14.18;5.60;;;23.40;99.90;;;23.10;61.54;101694.53;5092604;28;20191;-77
2021/07/22 09:59:45;;;;;;;12.02;5.32;;;23.30;99.90;;;23.02;61.75;101702.28;5094159;28;20260;-77
2021/07/22 10:02:19;;;;;;;13.70;5.53;;;23.10;99.90;;;22.89;61.95;101696.97;5093295;28;20203;-76
2021/07/22 10:04:52;;;;;;;11.60;5.47;;;23.00;99.90;;;22.77;62.81;101697.00;5093186;28;20207;-76
2021/07/22 10:07:23;;;;;;;15.70;6.05;;;22.80;99.90;;;22.66;62.70;101696.91;5094013;28;20194;-77
2021/07/22 10:09:52;;;;;;;13.52;5.47;;;22.70;99.90;;;22.56;63.21;101702.06;5092628;28;20709;-76
2021/07/22 10:12:21;;;;;;;13.55;5.65;;;22.50;99.90;;;22.49;63.27;101697.25;5092912;28;20750;-77
2021/07/22 10:14:55;;;;;;;15.85;5.90;;;22.40;99.90;;;22.45;63.08;101701.97;5093854;28;20191;-78
2021/07/22 10:17:27;;;;;;;11.80;5.35;;;22.30;99.90;;;22.40;63.39;101699.59;5093333;28;20220;-76
2021/07/22 10:19:57;;;;;;;13.65;5.70;;;22.30;99.90;;;22.39;63.06;101697.91;5093015;28;20211;-78
2021/07/22 10:22:26;;;;;;;15.32;5.63;;;22.20;99.90;;;22.40;63.16;101699.59;5092317;28;20593;-76